createdAt,value
2018-03-29T00:02:12.273Z,9.50
2018-03-29T00:04:40.461Z,9.50
2018-03-29T00:07:09.390Z,9.50
2018-03-29T00:09:38.328Z,9.50
2018-03-29T00:12:06.534Z,9.40
2018-03-29T00:14:34.725Z,9.50
2018-03-29T00:17:03.665Z,9.40
2018-03-29T00:19:31.854Z,9.40
2018-03-29T00:22:00.050Z,9.40
2018-03-29T00:24:28.230Z,9.40
2018-03-29T00:26:56.411Z,9.40
2018-03-29T00:29:25.380Z,9.30
2018-03-29T00:31:53.570Z,9.20
2018-03-29T00:34:21.767Z,9.30
2018-03-29T00:36:50.712Z,9.30
2018-03-29T00:39:18.926Z,9.20
2018-03-29T00:41:47.879Z,9.30
2018-03-29T00:44:16.045Z,9.30
2018-03-29T00:46:45.857Z,9.20
2018-03-29T00:49:14.032Z,9.20
2018-03-29T00:51:42.218Z,9.20
2018-03-29T00:54:10.382Z,9.20
2018-03-29T00:56:38.549Z,9.20
2018-03-29T00:59:06.724Z,9.20
2018-03-29T01:01:34.897Z,9.20
2018-03-29T01:04:03.056Z,9.20
2018-03-29T01:06:31.223Z,9.20
2018-03-29T01:08:59.403Z,9.10
2018-03-29T01:11:27.604Z,9.10
2018-03-29T01:13:55.779Z,9.10
2018-03-29T01:16:23.954Z,9.10
2018-03-29T01:18:52.158Z,9.10
2018-03-29T01:21:20.334Z,9.10
2018-03-29T01:23:48.543Z,9.10
2018-03-29T01:26:17.487Z,9.10
2018-03-29T01:28:45.667Z,9.00
2018-03-29T01:31:13.834Z,9.00
2018-03-29T01:33:41.998Z,9.00
2018-03-29T01:36:10.226Z,9.00
2018-03-29T01:38:39.178Z,8.90
2018-03-29T01:41:07.355Z,8.80
2018-03-29T01:43:35.523Z,8.90
2018-03-29T01:46:03.723Z,8.90
2018-03-29T01:48:31.890Z,8.90
2018-03-29T01:51:00.067Z,8.90
2018-03-29T01:53:28.283Z,8.90
2018-03-29T01:55:56.475Z,8.90
2018-03-29T01:58:24.741Z,8.90
2018-03-29T02:00:53.721Z,8.80
2018-03-29T02:03:22.657Z,8.80
2018-03-29T02:05:50.870Z,8.80
2018-03-29T02:08:19.835Z,8.90
2018-03-29T02:10:48.003Z,8.80
2018-03-29T02:13:16.214Z,8.90
2018-03-29T02:15:45.168Z,8.80
2018-03-29T02:18:13.343Z,8.80
2018-03-29T02:20:42.297Z,8.80
2018-03-29T02:23:10.471Z,8.80
2018-03-29T02:25:38.626Z,8.80
2018-03-29T02:28:07.585Z,8.80
2018-03-29T02:30:35.766Z,8.80
2018-03-29T02:33:03.975Z,8.80
2018-03-29T02:35:32.932Z,8.80
2018-03-29T02:38:01.102Z,8.70
2018-03-29T02:40:29.275Z,8.80
2018-03-29T02:42:57.506Z,8.70
2018-03-29T02:45:25.682Z,8.70
2018-03-29T02:47:53.951Z,8.70
2018-03-29T02:50:22.129Z,8.70
2018-03-29T02:52:50.338Z,8.70
2018-03-29T02:55:18.557Z,8.70
2018-03-29T02:57:47.533Z,8.70
2018-03-29T03:00:15.712Z,8.60
2018-03-29T03:02:43.914Z,8.70
2018-03-29T03:05:12.848Z,8.70
2018-03-29T03:07:41.023Z,8.60
2018-03-29T03:10:09.231Z,8.70
2018-03-29T03:12:37.414Z,8.70
2018-03-29T03:15:06.378Z,8.70
2018-03-29T03:17:34.558Z,8.60
2018-03-29T03:20:02.743Z,8.70
2018-03-29T03:22:30.922Z,8.70
2018-03-29T03:24:59.108Z,8.70
2018-03-29T03:27:28.072Z,8.60
2018-03-29T03:29:56.245Z,8.60
2018-03-29T03:32:25.189Z,8.60
2018-03-29T03:34:53.382Z,8.60
2018-03-29T03:37:21.586Z,8.60
2018-03-29T03:39:50.545Z,8.60
2018-03-29T03:42:18.731Z,8.50
2018-03-29T03:44:46.937Z,8.60
2018-03-29T03:47:15.123Z,8.60
2018-03-29T03:49:43.301Z,8.50
2018-03-29T03:52:11.480Z,8.50
2018-03-29T03:54:39.662Z,8.50
2018-03-29T03:57:08.632Z,8.50
2018-03-29T03:59:36.830Z,8.40
2018-03-29T04:02:05.779Z,8.50
2018-03-29T04:04:33.974Z,8.40
2018-03-29T04:07:02.187Z,8.50
2018-03-29T04:09:31.119Z,8.50
2018-03-29T04:11:59.297Z,8.40
2018-03-29T04:14:27.478Z,8.40
2018-03-29T04:16:55.677Z,8.40
2018-03-29T04:19:23.853Z,8.40
2018-03-29T04:21:52.044Z,8.40
2018-03-29T04:24:21.011Z,8.40
2018-03-29T04:26:49.189Z,8.40
2018-03-29T04:29:17.391Z,8.40
2018-03-29T04:31:46.384Z,8.50
2018-03-29T04:34:15.313Z,8.50
2018-03-29T04:36:43.508Z,8.40
2018-03-29T04:39:11.675Z,8.50
2018-03-29T04:41:39.859Z,8.50
2018-03-29T04:44:08.070Z,8.40
2018-03-29T04:46:37.010Z,8.40
2018-03-29T04:49:05.178Z,8.30
2018-03-29T04:51:33.370Z,8.40
2018-03-29T04:54:01.572Z,8.40
2018-03-29T04:56:29.773Z,8.40
2018-03-29T04:58:58.750Z,8.40
2018-03-29T05:01:27.691Z,8.40
2018-03-29T06:25:53.578Z,8.40
2018-03-29T06:28:21.754Z,8.80
2018-03-29T06:30:50.694Z,8.90
2018-03-29T06:33:19.652Z,9.00
2018-03-29T06:35:47.838Z,8.90
2018-03-29T06:38:16.014Z,9.10
2018-03-29T06:40:44.189Z,9.20
2018-03-29T06:43:12.364Z,9.30
2018-03-29T06:45:40.548Z,9.40
2018-03-29T06:48:08.733Z,9.40
2018-03-29T06:50:36.936Z,9.40
2018-03-29T06:53:05.105Z,9.50
2018-03-29T06:55:34.049Z,9.60
2018-03-29T06:58:02.226Z,9.60
2018-03-29T07:00:30.391Z,9.70
2018-03-29T07:02:58.570Z,9.80
2018-03-29T07:05:26.747Z,9.80
2018-03-29T07:07:54.931Z,9.90
2018-03-29T07:10:23.103Z,9.90
2018-03-29T07:12:51.277Z,10.00
2018-03-29T07:15:19.447Z,10.00
2018-03-29T07:17:47.622Z,10.10
2018-03-29T07:20:15.822Z,10.20
2018-03-29T07:22:44.795Z,10.30
2018-03-29T07:25:12.974Z,10.30
2018-03-29T07:27:41.164Z,10.40
2018-03-29T07:30:10.110Z,10.50
2018-03-29T07:32:38.300Z,10.40
2018-03-29T07:35:06.472Z,10.60
2018-03-29T07:37:34.696Z,10.70
2018-03-29T07:40:03.673Z,10.80
2018-03-29T07:42:31.883Z,10.70
2018-03-29T07:45:00.094Z,10.70
2018-03-29T07:47:28.293Z,10.80
2018-03-29T07:49:56.471Z,10.80
2018-03-29T07:52:24.641Z,10.80
2018-03-29T07:54:52.835Z,10.90
2018-03-29T07:57:21.770Z,10.80
2018-03-29T07:59:49.955Z,10.70
2018-03-29T08:02:18.165Z,10.80
2018-03-29T08:04:46.343Z,10.70
2018-03-29T08:07:15.286Z,10.70
2018-03-29T08:09:43.512Z,10.60
2018-03-29T08:12:12.459Z,10.90
2018-03-29T08:14:40.645Z,10.80
2018-03-29T08:17:08.913Z,11.00
2018-03-29T08:19:37.075Z,11.00
2018-03-29T08:22:05.257Z,11.00
2018-03-29T08:24:33.445Z,11.00
2018-03-29T08:27:01.626Z,11.00
2018-03-29T08:29:29.811Z,11.10
2018-03-29T08:31:57.991Z,11.20
2018-03-29T08:34:26.163Z,11.40
2018-03-29T08:36:54.335Z,11.50
2018-03-29T08:39:22.534Z,11.70
2018-03-29T08:41:51.476Z,11.80
2018-03-29T08:44:19.665Z,11.80
2018-03-29T08:46:47.846Z,11.80
2018-03-29T08:49:16.031Z,11.80
2018-03-29T08:51:44.215Z,11.80
2018-03-29T08:54:12.390Z,11.80
2018-03-29T08:56:40.597Z,11.80
2018-03-29T08:59:08.767Z,11.80
2018-03-29T09:01:36.939Z,11.70
2018-03-29T09:04:05.147Z,11.70
2018-03-29T09:06:33.335Z,11.70
2018-03-29T09:09:01.507Z,11.60
2018-03-29T09:11:29.711Z,11.60
2018-03-29T09:13:57.897Z,11.60
2018-03-29T09:16:26.882Z,11.50
2018-03-29T09:18:55.055Z,11.40
2018-03-29T09:21:23.232Z,11.40
2018-03-29T09:23:51.404Z,11.40
2018-03-29T09:26:20.355Z,11.40
2018-03-29T09:28:48.540Z,11.40
2018-03-29T09:31:16.719Z,11.40
2018-03-29T09:33:44.890Z,11.40
2018-03-29T09:36:13.080Z,11.50
2018-03-29T09:38:41.306Z,11.50
2018-03-29T09:41:09.500Z,11.60
2018-03-29T09:43:37.694Z,11.60
2018-03-29T09:46:05.879Z,11.60
2018-03-29T09:48:34.073Z,11.50
2018-03-29T09:51:03.045Z,11.60
2018-03-29T09:53:31.233Z,11.50
2018-03-29T09:55:59.418Z,11.60
2018-03-29T09:58:28.374Z,11.60
2018-03-29T10:01:02.126Z,11.60
2018-03-29T10:03:30.336Z,11.60
2018-03-29T10:06:04.320Z,11.60
2018-03-29T10:08:33.289Z,11.60
2018-03-29T10:11:01.485Z,11.50
2018-03-29T10:13:30.431Z,11.50
2018-03-29T10:15:58.608Z,11.50
2018-03-29T10:18:26.815Z,11.60
2018-03-29T10:20:55.753Z,11.50
2018-03-29T10:23:23.930Z,11.40
2018-03-29T10:25:52.115Z,11.50
2018-03-29T10:28:20.291Z,11.50
2018-03-29T10:30:48.474Z,11.50
2018-03-29T10:33:16.674Z,11.50
2018-03-29T10:35:44.887Z,11.50
2018-03-29T10:38:13.804Z,11.50
2018-03-29T10:40:42.014Z,11.40
2018-03-29T10:43:10.240Z,11.50
2018-03-29T10:45:38.412Z,11.50
2018-03-29T10:48:06.614Z,11.60
2018-03-29T10:50:34.820Z,11.70
2018-03-29T10:53:03.762Z,11.80
2018-03-29T10:55:31.941Z,11.70
2018-03-29T10:58:00.171Z,11.80
2018-03-29T11:00:28.309Z,11.80
2018-03-29T11:02:56.499Z,11.90
2018-03-29T11:05:24.685Z,11.90
2018-03-29T11:07:52.855Z,11.80
2018-03-29T11:10:21.038Z,11.90
2018-03-29T11:12:50.036Z,11.90
2018-03-29T11:15:18.986Z,11.80
2018-03-29T11:17:47.158Z,11.80
2018-03-29T11:20:16.118Z,11.80
2018-03-29T11:22:44.331Z,11.70
2018-03-29T11:25:12.515Z,11.70
2018-03-29T11:27:40.699Z,11.70
2018-03-29T11:30:08.891Z,11.70
2018-03-29T11:32:37.839Z,11.60
2018-03-29T11:35:06.020Z,11.60
2018-03-29T11:37:34.207Z,11.60
2018-03-29T11:40:02.384Z,11.60
2018-03-29T11:42:30.553Z,11.60
2018-03-29T11:44:58.728Z,11.60
2018-03-29T11:47:26.907Z,11.60
2018-03-29T11:49:55.089Z,11.60
2018-03-29T11:52:23.278Z,11.60
2018-03-29T11:54:52.222Z,11.70
2018-03-29T11:57:20.406Z,11.70
2018-03-29T11:59:48.614Z,11.70
2018-03-29T12:02:16.796Z,11.80
2018-03-29T12:04:45.738Z,11.80
2018-03-29T12:07:13.949Z,11.70
2018-03-29T12:09:42.135Z,11.90
2018-03-29T12:12:11.121Z,11.90
2018-03-29T12:14:39.304Z,11.80
2018-03-29T12:17:07.479Z,12.00
2018-03-29T12:19:35.667Z,11.90
2018-03-29T12:22:04.624Z,11.90
2018-03-29T12:24:32.798Z,11.80
2018-03-29T12:27:00.991Z,11.90
2018-03-29T12:29:29.195Z,11.80
2018-03-29T12:31:57.399Z,11.80
2018-03-29T12:34:25.591Z,11.80
2018-03-29T12:36:53.770Z,11.90
2018-03-29T12:39:21.977Z,11.90
2018-03-29T12:41:50.916Z,11.90
2018-03-29T12:44:19.093Z,11.80
2018-03-29T12:46:47.265Z,11.90
2018-03-29T12:49:15.456Z,11.80
2018-03-29T12:51:43.634Z,11.90
2018-03-29T12:54:11.815Z,11.90
2018-03-29T12:56:57.884Z,11.90
2018-03-29T12:59:26.066Z,11.90
2018-03-29T13:01:54.281Z,11.90
2018-03-29T13:04:23.236Z,11.80
2018-03-29T13:06:51.425Z,11.70
2018-03-29T13:09:19.628Z,11.80
2018-03-29T13:11:48.566Z,11.80
2018-03-29T13:14:16.739Z,11.80
2018-03-29T13:16:44.927Z,11.80
2018-03-29T13:19:13.151Z,11.90
2018-03-29T13:21:42.095Z,11.90
2018-03-29T13:24:10.288Z,11.90
2018-03-29T13:26:38.529Z,11.90
2018-03-29T13:29:06.712Z,11.90
2018-03-29T13:31:34.897Z,11.90
2018-03-29T13:34:03.171Z,11.90
2018-03-29T13:36:31.386Z,11.90
2018-03-29T13:38:59.548Z,11.80
2018-03-29T13:41:28.520Z,11.90
2018-03-29T13:43:56.713Z,11.80
2018-03-29T13:46:24.916Z,12.00
2018-03-29T13:48:53.899Z,11.90
2018-03-29T13:51:22.869Z,11.90
2018-03-29T13:53:51.157Z,11.80
2018-03-29T13:56:19.353Z,11.90
2018-03-29T13:58:48.298Z,11.80
2018-03-29T14:01:16.489Z,11.80
2018-03-29T14:03:44.667Z,11.90
2018-03-29T14:06:12.894Z,11.80
2018-03-29T14:08:41.066Z,11.70
2018-03-29T14:11:09.238Z,11.70
2018-03-29T14:13:37.418Z,11.70
2018-03-29T14:16:05.629Z,11.60
2018-03-29T14:18:33.826Z,11.60
2018-03-29T14:21:02.007Z,11.50
2018-03-29T14:23:30.203Z,11.40
2018-03-29T14:25:59.180Z,11.30
2018-03-29T14:28:28.131Z,11.30
2018-03-29T14:30:56.344Z,11.20
2018-03-29T14:33:24.522Z,11.20
2018-03-29T14:35:53.661Z,11.10
2018-03-29T14:38:21.886Z,11.00
2018-03-29T14:40:50.842Z,11.10
2018-03-29T14:43:19.032Z,11.00
2018-03-29T14:45:47.210Z,11.10
2018-03-29T14:48:15.426Z,11.00
2018-03-29T14:50:44.386Z,11.00
2018-03-29T14:53:12.570Z,10.90
2018-03-29T14:55:40.746Z,10.90
2018-03-29T14:58:08.925Z,10.90
2018-03-29T15:00:37.100Z,10.80
2018-03-29T15:03:05.276Z,10.80
2018-03-29T15:05:34.267Z,10.70
2018-03-29T15:08:02.469Z,10.60
2018-03-29T15:10:31.398Z,10.70
2018-03-29T15:12:59.611Z,10.60
2018-03-29T15:15:28.555Z,10.70
2018-03-29T15:17:56.744Z,10.60
2018-03-29T15:20:24.931Z,10.70
2018-03-29T15:22:53.106Z,10.70
2018-03-29T15:25:21.299Z,10.60
2018-03-29T15:27:49.476Z,10.50
2018-03-29T15:30:17.684Z,10.50
2018-03-29T15:32:45.871Z,10.50
2018-03-29T15:35:14.054Z,10.50
2018-03-29T15:37:42.230Z,10.40
2018-03-29T15:40:10.407Z,10.30
2018-03-29T15:42:38.590Z,10.30
2018-03-29T15:45:06.794Z,10.30
2018-03-29T15:47:34.974Z,10.30
2018-03-29T15:50:03.150Z,10.30
2018-03-29T15:52:31.354Z,10.30
2018-03-29T15:54:59.533Z,10.30
2018-03-29T15:57:27.699Z,10.20
2018-03-29T15:59:56.651Z,10.20
2018-03-29T16:02:24.847Z,10.20
2018-03-29T16:04:53.795Z,10.20
2018-03-29T16:07:21.963Z,10.10
2018-03-29T16:09:50.147Z,10.10
2018-03-29T16:12:18.331Z,10.10
2018-03-29T16:14:46.542Z,10.10
2018-03-29T16:17:15.478Z,10.10
2018-03-29T16:19:43.684Z,10.00
2018-03-29T16:22:11.872Z,10.00
2018-03-29T16:24:40.063Z,10.00
2018-03-29T16:27:09.014Z,10.00
2018-03-29T16:29:37.180Z,9.90
2018-03-29T16:32:05.362Z,10.00
2018-03-29T16:34:33.562Z,10.00
2018-03-29T16:37:01.778Z,10.00
2018-03-29T16:39:29.954Z,9.90
2018-03-29T16:41:58.141Z,9.90
2018-03-29T16:44:26.335Z,9.90
2018-03-29T16:46:54.537Z,9.80
2018-03-29T16:49:22.716Z,9.80
2018-03-29T16:51:50.887Z,9.80
2018-03-29T16:54:19.071Z,9.80
2018-03-29T16:56:48.051Z,9.80
2018-03-29T16:59:16.230Z,9.70
2018-03-29T17:01:44.415Z,9.80
2018-03-29T17:04:13.350Z,9.80
2018-03-29T17:06:41.534Z,9.70
2018-03-29T17:09:09.783Z,9.70
2018-03-29T17:11:37.947Z,9.70
2018-03-29T17:14:06.889Z,9.70
2018-03-29T17:16:35.061Z,9.70
2018-03-29T17:19:03.230Z,9.70
2018-03-29T17:21:31.412Z,9.80
2018-03-29T17:23:59.599Z,9.70
2018-03-29T17:26:27.769Z,9.60
2018-03-29T17:28:55.937Z,9.60
2018-03-29T17:31:24.123Z,9.60
2018-03-29T17:33:52.314Z,9.60
2018-03-29T17:36:20.496Z,9.60
2018-03-29T17:38:49.443Z,9.50
2018-03-29T17:41:17.655Z,9.50
2018-03-29T17:43:45.828Z,9.50
2018-03-29T17:46:14.039Z,9.50
2018-03-29T17:48:42.231Z,9.40
2018-03-29T17:51:10.404Z,9.50
2018-03-29T17:53:38.581Z,9.50
2018-03-29T17:56:06.752Z,9.40
2018-03-29T17:58:34.943Z,9.40
2018-03-29T18:01:03.886Z,9.50
2018-03-29T18:03:32.822Z,9.50
2018-03-29T18:06:00.995Z,9.40
2018-03-29T18:08:29.177Z,9.50
2018-03-29T18:10:57.374Z,9.50
2018-03-29T18:13:25.559Z,9.50
2018-03-29T18:15:53.735Z,9.50
2018-03-29T18:18:21.910Z,9.50
2018-03-29T18:20:50.134Z,9.50
2018-03-29T18:23:18.312Z,9.40
2018-03-29T18:25:46.488Z,9.40
2018-03-29T18:28:14.664Z,9.40
2018-03-29T18:30:42.883Z,9.40
2018-03-29T18:33:11.052Z,9.40
2018-03-29T18:35:39.229Z,9.40
2018-03-29T18:38:07.410Z,9.40
2018-03-29T18:40:35.587Z,9.50
2018-03-29T18:43:03.757Z,9.40
2018-03-29T18:45:31.925Z,9.40
2018-03-29T18:48:00.102Z,9.40
2018-03-29T18:50:28.275Z,9.40
2018-03-29T18:52:56.442Z,9.40
2018-03-29T18:55:24.619Z,9.40
2018-03-29T18:57:52.817Z,9.40
2018-03-29T19:00:21.810Z,9.30
2018-03-29T19:02:50.740Z,9.30
2018-03-29T19:05:18.919Z,9.30
2018-03-29T19:07:47.098Z,9.30
2018-03-29T19:10:15.270Z,9.30
2018-03-29T19:12:43.445Z,9.30
2018-03-29T19:15:11.685Z,9.30
2018-03-29T19:17:40.622Z,9.30
2018-03-29T19:20:08.802Z,9.20
2018-03-29T19:22:36.981Z,9.30
2018-03-29T19:25:05.147Z,9.20
2018-03-29T19:27:33.311Z,9.20
2018-03-29T19:30:01.478Z,9.20
2018-03-29T19:32:29.647Z,9.20
2018-03-29T19:34:57.863Z,9.20
2018-03-29T19:37:26.034Z,9.20
2018-03-29T19:39:54.236Z,9.20
2018-03-29T19:42:23.181Z,9.20
2018-03-29T19:44:52.132Z,9.20
2018-03-29T19:47:21.084Z,9.20
2018-03-29T19:49:49.255Z,9.20
2018-03-29T19:52:17.433Z,9.20
2018-03-29T19:54:45.625Z,9.20
2018-03-29T19:57:13.860Z,9.20
2018-03-29T19:59:42.050Z,9.20
2018-03-29T20:02:10.220Z,9.20
2018-03-29T20:04:38.412Z,9.20
2018-03-29T20:07:06.589Z,9.20
2018-03-29T20:09:34.790Z,9.20
2018-03-29T20:12:03.772Z,9.20
2018-03-29T20:14:31.961Z,9.10
2018-03-29T20:17:00.895Z,9.20
2018-03-29T20:19:29.116Z,9.10
2018-03-29T20:21:57.345Z,9.20
2018-03-29T20:24:25.550Z,9.10
2018-03-29T20:26:53.724Z,9.00
2018-03-29T20:29:21.884Z,9.00
2018-03-29T20:31:50.050Z,9.00
2018-03-29T20:34:18.214Z,8.90
2018-03-29T20:36:46.375Z,8.80
2018-03-29T20:39:14.562Z,8.70
2018-03-29T20:41:42.753Z,8.70
2018-03-29T20:44:10.939Z,8.60
2018-03-29T20:46:39.144Z,8.60
2018-03-29T20:49:08.077Z,8.50
2018-03-29T20:51:36.279Z,8.50
2018-03-29T20:54:04.463Z,8.40
2018-03-29T20:56:32.630Z,8.40
2018-03-29T20:59:00.803Z,8.40
2018-03-29T21:01:28.960Z,8.30
2018-03-29T21:03:57.156Z,8.20
2018-03-29T22:28:23.010Z,8.20
2018-03-29T22:30:51.171Z,7.20
2018-03-29T22:33:19.355Z,7.20
2018-03-29T22:35:47.545Z,7.20
2018-03-29T22:38:15.719Z,7.20
2018-03-29T22:40:43.891Z,7.30
2018-03-29T22:43:12.062Z,7.30
2018-03-29T22:45:40.264Z,7.30
2018-03-29T22:48:08.501Z,7.20
2018-03-29T22:50:36.668Z,7.20
2018-03-29T22:53:04.842Z,7.20
2018-03-29T22:55:33.002Z,7.20
2018-03-29T22:58:01.932Z,7.20
2018-03-29T23:00:34.875Z,7.20
2018-03-29T23:03:03.811Z,7.30
2018-03-29T23:05:31.980Z,7.20
2018-03-29T23:08:00.164Z,7.30
2018-03-29T23:10:28.331Z,7.20
2018-03-29T23:12:56.497Z,7.20
2018-03-29T23:15:24.701Z,7.20
2018-03-29T23:17:52.882Z,7.20
2018-03-29T23:20:21.089Z,7.20
2018-03-29T23:22:50.033Z,7.10
2018-03-29T23:25:18.196Z,7.10
2018-03-29T23:27:46.376Z,7.10
2018-03-29T23:30:14.542Z,7.10
2018-03-29T23:32:45.846Z,7.20
2018-03-29T23:35:14.152Z,7.10
2018-03-29T23:37:42.330Z,7.10
2018-03-29T23:40:10.497Z,7.10
2018-03-29T23:42:39.428Z,7.10
2018-03-29T23:45:07.591Z,7.00
2018-03-29T23:47:35.785Z,7.10
2018-03-29T23:50:03.963Z,7.10
2018-03-29T23:52:32.130Z,7.10
2018-03-29T23:55:00.306Z,7.10
2018-03-29T23:57:28.511Z,7.10
2018-03-29T23:59:56.679Z,7.10
